Time;durP1;ratioP1;P1;durP2;ratioP2;P2;SDS_P1;SDS_P2;PMS_P1;PMS_P2;Temp;Humidity;BMP_temperature;BMP_pressure;BME280_temperature;BME280_humidity;BME280_pressure;Samples;Min_cycle;Max_cycle;Signal;HPM_P1;HPM_P2
2021/08/10 00:01:14;;;;;;;3.05;1.63;;;15.80;99.90;;;;;;5040393;28;20536;-87
2021/08/10 00:03:40;;;;;;;3.47;1.13;;;16.10;99.90;;;;;;5039934;28;20017;-87
2021/08/10 00:06:05;;;;;;;3.38;1.23;;;16.10;99.90;;;;;;5040069;28;20408;-87
2021/08/10 00:08:31;;;;;;;7.03;1.40;;;15.90;99.90;;;;;;5039914;28;20120;-87
2021/08/10 00:10:57;;;;;;;6.35;1.30;;;15.60;99.90;;;;;;5039821;28;20029;-87
2021/08/10 00:13:24;;;;;;;4.47;1.30;;;15.80;99.90;;;;;;5039505;28;20071;-87
2021/08/10 00:15:50;;;;;;;3.70;1.45;;;15.60;99.90;;;;;;5039762;28;20025;-87
2021/08/10 00:18:16;;;;;;;5.78;1.17;;;15.60;99.90;;;;;;5040067;28;20125;-87
2021/08/10 00:20:42;;;;;;;4.00;1.35;;;15.80;99.90;;;;;;5039727;28;20075;-87
2021/08/10 00:23:08;;;;;;;3.58;1.40;;;15.80;99.90;;;;;;5039724;28;20021;-87
2021/08/10 00:25:34;;;;;;;3.80;1.35;;;15.90;99.90;;;;;;5057442;28;20024;-87
2021/08/10 00:28:00;;;;;;;4.60;1.60;;;15.60;99.90;;;;;;5039908;28;20427;-87
2021/08/10 00:30:27;;;;;;;3.00;1.48;;;15.50;99.90;;;;;;5037757;28;20017;-88
2021/08/10 00:32:53;;;;;;;5.10;1.48;;;15.50;99.90;;;;;;5040323;28;20021;-87
2021/08/10 00:35:18;;;;;;;4.60;1.60;;;15.60;99.90;;;;;;5039436;28;20400;-87
2021/08/10 00:37:44;;;;;;;3.80;1.70;;;15.60;99.90;;;;;;5039597;28;20499;-86
2021/08/10 00:40:12;;;;;;;4.03;1.30;;;15.50;99.90;;;;;;5039161;28;20087;-87
2021/08/10 00:42:37;;;;;;;4.03;1.45;;;15.50;99.90;;;;;;5039156;28;20029;-87
2021/08/10 00:45:05;;;;;;;4.97;1.55;;;15.80;99.90;;;;;;5039577;28;20128;-87
2021/08/10 00:47:30;;;;;;;2.85;1.40;;;15.50;99.90;;;;;;5038961;28;20419;-87
2021/08/10 00:49:56;;;;;;;3.05;1.30;;;15.50;99.90;;;;;;5039321;28;20032;-86
2021/08/10 00:52:22;;;;;;;3.08;1.40;;;15.60;99.90;;;;;;5039136;28;20033;-87
2021/08/10 00:54:48;;;;;;;4.80;1.48;;;15.80;99.90;;;;;;5039131;28;20071;-87
2021/08/10 00:57:14;;;;;;;2.10;1.30;;;15.70;99.90;;;;;;5056768;28;20033;-88
2021/08/10 00:59:40;;;;;;;3.85;1.23;;;15.60;99.90;;;;;;5039197;28;20119;-87
2021/08/10 01:02:06;;;;;;;2.75;1.30;;;15.40;99.90;;;;;;5039159;28;20025;-87
2021/08/10 01:04:34;;;;;;;2.88;1.20;;;15.30;99.90;;;;;;5038660;28;20481;-87
2021/08/10 01:07:09;;;;;;;2.83;1.30;;;15.30;99.90;;;;;;5040058;28;20021;-87
2021/08/10 01:09:55;;;;;;;2.75;1.48;;;15.30;99.90;;;;;;5062058;28;20029;-87
2021/08/10 01:12:28;;;;;;;2.58;1.40;;;15.20;99.90;;;;;;5059196;28;20070;-86
2021/08/10 01:15:02;;;;;;;2.40;1.40;;;15.40;99.90;;;;;;5039348;28;20058;-87
2021/08/10 01:17:38;;;;;;;7.28;1.55;;;15.70;99.90;;;;;;5039078;28;20021;-87
2021/08/10 01:20:07;;;;;;;4.95;1.85;;;15.70;99.90;;;;;;5056936;28;20025;-87
2021/08/10 01:22:37;;;;;;;4.82;1.30;;;15.60;99.90;;;;;;5038821;28;20068;-87
2021/08/10 01:25:20;;;;;;;3.72;1.13;;;15.50;99.90;;;;;;5038771;28;20028;-87
2021/08/10 01:27:51;;;;;;;4.95;1.38;;;15.30;99.90;;;;;;5038786;28;20067;-87
2021/08/10 01:30:31;;;;;;;4.22;1.40;;;15.40;99.90;;;;;;5038514;28;20063;-87
2021/08/10 01:32:59;;;;;;;5.82;1.45;;;15.50;99.90;;;;;;5038511;28;20398;-87
2021/08/10 01:35:27;;;;;;;3.95;1.48;;;15.70;99.90;;;;;;5038465;28;20044;-87
2021/08/10 01:37:56;;;;;;;3.72;1.38;;;15.60;99.90;;;;;;5037999;28;20025;-87
2021/08/10 01:40:25;;;;;;;2.67;1.10;;;15.60;99.90;;;;;;5049345;28;20038;-87
2021/08/10 01:42:54;;;;;;;8.38;1.50;;;15.40;99.90;;;;;;5036136;28;20495;-87
2021/08/10 01:45:20;;;;;;;5.60;1.63;;;15.40;99.90;;;;;;5017879;28;20018;-87
2021/08/10 01:47:47;;;;;;;5.22;1.40;;;15.50;99.90;;;;;;5018195;28;20025;-87
2021/08/10 01:50:15;;;;;;;3.63;1.50;;;15.50;99.90;;;;;;5018488;28;20116;-87
2021/08/10 01:52:43;;;;;;;4.10;1.40;;;15.60;99.90;;;;;;5036362;28;20079;-87
2021/08/10 01:55:10;;;;;;;5.05;1.60;;;15.60;99.90;;;;;;5036037;28;20362;-87
2021/08/10 01:57:38;;;;;;;1.77;1.20;;;15.50;99.90;;;;;;5018162;28;20042;-87
2021/08/10 02:00:05;;;;;;;4.20;1.70;;;15.30;99.90;;;;;;5018629;28;20029;-87
2021/08/10 02:02:32;;;;;;;8.05;1.52;;;15.30;99.90;;;;;;5018169;28;20036;-87
2021/08/10 02:04:59;;;;;;;3.50;1.67;;;15.30;99.90;;;;;;5017670;28;20116;-87
2021/08/10 02:07:25;;;;;;;4.43;1.20;;;15.30;99.90;;;;;;5018158;28;20057;-87
2021/08/10 02:09:53;;;;;;;3.30;1.40;;;15.40;99.90;;;;;;5018091;28;20030;-87
2021/08/10 02:12:19;;;;;;;5.68;1.70;;;15.40;99.90;;;;;;5017839;28;20476;-87
2021/08/10 02:14:45;;;;;;;2.55;1.48;;;15.40;99.90;;;;;;5017628;28;20366;-87
2021/08/10 02:17:15;;;;;;;4.65;1.35;;;15.50;99.90;;;;;;5017736;28;20040;-87
2021/08/10 02:19:40;;;;;;;4.50;1.40;;;15.40;99.90;;;;;;5018211;28;20504;-87
2021/08/10 02:22:09;;;;;;;4.60;1.50;;;15.50;99.90;;;;;;5017279;28;20025;-87
2021/08/10 02:24:58;;;;;;;3.65;1.70;;;15.50;99.90;;;;;;5017287;28;20022;-86
2021/08/10 02:27:35;;;;;;;3.20;1.10;;;15.60;99.90;;;;;;5017309;28;20029;-87
2021/08/10 02:30:06;;;;;;;3.50;1.55;;;15.60;99.90;;;;;;5017281;28;20104;-86
2021/08/10 02:32:33;;;;;;;3.60;1.42;;;15.20;99.90;;;;;;5017277;28;20029;-87
2021/08/10 02:35:00;;;;;;;3.30;1.65;;;15.10;99.90;;;;;;5017607;28;20029;-86
2021/08/10 02:37:26;;;;;;;2.05;1.30;;;15.00;99.90;;;;;;5035589;28;20144;-86
2021/08/10 02:39:54;;;;;;;2.83;1.30;;;15.00;99.90;;;;;;5017216;28;20029;-85
2021/08/10 02:42:24;;;;;;;4.00;1.20;;;15.20;99.90;;;;;;5017344;28;20029;-86
2021/08/10 02:44:51;;;;;;;2.30;1.38;;;15.40;99.90;;;;;;5017489;28;20081;-87
2021/08/10 02:47:18;;;;;;;3.33;1.23;;;15.50;99.90;;;;;;5017450;28;20064;-87
2021/08/10 02:49:44;;;;;;;2.55;1.60;;;15.50;99.90;;;;;;5017029;28;20029;-86
2021/08/10 02:52:11;;;;;;;4.00;1.38;;;15.40;99.90;;;;;;5017038;28;20037;-86
2021/08/10 02:54:38;;;;;;;4.18;1.38;;;15.20;99.90;;;;;;5016712;28;20504;-87
2021/08/10 02:57:31;;;;;;;3.97;1.52;;;15.40;99.90;;;;;;5017312;28;20183;-86
2021/08/10 03:00:09;;;;;;;2.72;1.35;;;15.50;99.90;;;;;;5033739;28;20014;-87
2021/08/10 03:02:43;;;;;;;1.60;1.27;;;15.40;99.90;;;;;;5034854;28;20409;-87
2021/08/10 03:05:11;;;;;;;4.47;1.48;;;15.30;99.90;;;;;;5017242;28;20074;-87
2021/08/10 03:07:40;;;;;;;3.53;1.50;;;14.90;99.90;;;;;;5034809;28;20033;-87
2021/08/10 03:10:07;;;;;;;3.33;1.40;;;14.80;99.90;;;;;;5034855;28;20032;-86
2021/08/10 03:12:38;;;;;;;4.32;1.70;;;14.80;99.90;;;;;;5017125;28;20026;-88
2021/08/10 03:15:04;;;;;;;2.97;1.50;;;14.60;99.90;;;;;;5017155;28;20025;-87
2021/08/10 03:17:37;;;;;;;4.05;1.38;;;14.80;99.90;;;;;;5016825;28;20022;-87
2021/08/10 03:20:05;;;;;;;12.85;1.50;;;14.90;99.90;;;;;;5016834;28;20017;-87
2021/08/10 03:22:33;;;;;;;4.53;1.33;;;14.90;99.90;;;;;;5019128;28;20485;-87
2021/08/10 03:25:01;;;;;;;5.28;1.48;;;14.90;99.90;;;;;;5037653;28;20473;-87
2021/08/10 03:27:28;;;;;;;3.70;1.80;;;15.00;99.90;;;;;;5019326;28;20057;-87
2021/08/10 03:29:55;;;;;;;6.07;1.40;;;15.10;99.90;;;;;;5017509;28;20025;-87
2021/08/10 03:32:21;;;;;;;5.60;1.48;;;15.10;99.90;;;;;;5017052;28;20027;-87
2021/08/10 03:34:47;;;;;;;2.72;1.30;;;14.80;99.90;;;;;;5034586;28;20045;-87
2021/08/10 03:37:17;;;;;;;3.85;1.65;;;14.80;99.90;;;;;;5016997;28;20025;-87
2021/08/10 03:39:44;;;;;;;2.53;1.50;;;14.70;99.90;;;;;;5017170;28;20025;-86
2021/08/10 03:42:10;;;;;;;5.35;1.70;;;14.80;99.90;;;;;;5016942;28;20026;-87
2021/08/10 03:44:42;;;;;;;4.38;1.52;;;14.80;99.90;;;;;;5017227;28;20025;-86
2021/08/10 03:47:10;;;;;;;3.35;1.50;;;15.00;99.90;;;;;;5017243;28;20034;-87
2021/08/10 03:49:37;;;;;;;3.00;1.40;;;14.70;99.90;;;;;;5017012;28;20040;-86
2021/08/10 03:52:04;;;;;;;4.53;1.50;;;14.80;99.90;;;;;;5017097;28;20076;-87
2021/08/10 03:54:30;;;;;;;4.50;1.50;;;14.90;99.90;;;;;;5016690;28;20477;-87
2021/08/10 03:56:58;;;;;;;5.18;1.40;;;14.90;99.90;;;;;;5034110;28;20116;-87
2021/08/10 03:59:24;;;;;;;3.13;1.40;;;14.70;99.90;;;;;;5016651;28;20022;-87
2021/08/10 04:01:53;;;;;;;2.50;1.50;;;14.80;99.90;;;;;;5016182;28;20045;-86
2021/08/10 04:04:20;;;;;;;3.65;1.40;;;15.20;99.90;;;;;;5016908;28;20388;-86
2021/08/10 04:06:46;;;;;;;6.03;1.52;;;15.20;99.90;;;;;;5020272;28;20532;-87
2021/08/10 04:09:12;;;;;;;5.40;1.38;;;15.30;99.90;;;;;;5020077;28;20072;-86
2021/08/10 04:11:39;;;;;;;5.70;1.27;;;15.30;99.90;;;;;;5019961;28;20037;-87
2021/08/10 04:14:07;;;;;;;4.45;1.60;;;15.00;99.90;;;;;;5020199;28;20040;-87
2021/08/10 04:16:46;;;;;;;5.50;1.88;;;15.10;99.90;;;;;;5020247;28;20533;-87
2021/08/10 04:19:14;;;;;;;3.78;1.27;;;15.00;99.90;;;;;;5037664;28;20017;-87
2021/08/10 04:21:39;;;;;;;5.55;1.30;;;15.30;99.90;;;;;;5019494;28;20021;-86
2021/08/10 04:24:05;;;;;;;2.15;1.20;;;15.30;99.90;;;;;;5019899;28;20500;-87
2021/08/10 04:26:33;;;;;;;2.67;1.42;;;15.00;99.90;;;;;;5019880;28;20026;-87
2021/08/10 04:29:00;;;;;;;5.53;1.63;;;15.10;99.90;;;;;;5037730;28;20108;-87
2021/08/10 04:31:26;;;;;;;4.38;1.50;;;15.20;99.90;;;;;;5019977;28;20037;-87
2021/08/10 04:33:51;;;;;;;6.50;1.60;;;15.40;99.90;;;;;;5019985;28;20022;-87
2021/08/10 04:36:17;;;;;;;2.60;1.30;;;15.30;99.90;;;;;;5037626;28;20473;-87
2021/08/10 04:38:43;;;;;;;5.00;1.50;;;14.90;99.90;;;;;;5019052;28;20022;-87
2021/08/10 04:41:08;;;;;;;10.93;1.90;;;15.20;99.90;;;;;;5032776;28;20060;-86
2021/08/10 04:43:34;;;;;;;5.72;1.40;;;15.40;99.90;;;;;;5039508;28;20025;-86
2021/08/10 04:46:00;;;;;;;3.10;1.17;;;15.40;99.90;;;;;;5039329;28;20074;-87
2021/08/10 04:48:26;;;;;;;6.07;1.48;;;15.40;99.90;;;;;;5057340;28;20021;-87
2021/08/10 04:50:51;;;;;;;3.17;1.40;;;15.60;99.90;;;;;;5039160;28;20029;-88
2021/08/10 04:53:17;;;;;;;3.58;1.60;;;15.40;99.90;;;;;;5039458;28;20029;-87
2021/08/10 04:55:43;;;;;;;4.90;2.40;;;15.70;99.90;;;;;;5039409;28;20476;-87
2021/08/10 04:58:08;;;;;;;5.90;1.70;;;15.50;99.90;;;;;;5040139;28;20123;-86
2021/08/10 05:00:34;;;;;;;2.17;1.60;;;15.40;99.90;;;;;;5039370;28;20059;-87
2021/08/10 05:03:00;;;;;;;5.10;1.20;;;15.70;99.90;;;;;;5040285;28;20032;-87
2021/08/10 05:05:25;;;;;;;6.38;1.55;;;15.50;99.90;;;;;;5039575;28;20506;-87
2021/08/10 05:07:51;;;;;;;4.00;1.33;;;15.60;99.90;;;;;;5039464;28;20052;-87
2021/08/10 05:10:17;;;;;;;4.03;1.58;;;15.70;99.90;;;;;;5037370;28;20029;-87
2021/08/10 05:12:42;;;;;;;3.58;1.30;;;15.90;99.90;;;;;;5037442;28;20468;-87
2021/08/10 05:15:09;;;;;;;2.90;1.30;;;16.00;99.90;;;;;;5055189;28;20075;-87
2021/08/10 05:17:34;;;;;;;5.03;1.73;;;15.90;99.90;;;;;;5036566;28;20052;-87
2021/08/10 05:20:00;;;;;;;5.07;1.58;;;15.80;99.90;;;;;;5037316;28;20069;-87
2021/08/10 05:22:26;;;;;;;4.60;1.80;;;15.80;99.90;;;;;;5037139;28;20048;-87
2021/08/10 05:24:52;;;;;;;4.32;1.50;;;15.70;99.90;;;;;;5037190;28;20025;-86
2021/08/10 05:27:18;;;;;;;3.47;1.50;;;15.70;99.90;;;;;;5054941;28;20539;-87
2021/08/10 05:29:43;;;;;;;4.70;1.70;;;15.80;99.90;;;;;;5037118;28;20415;-87
2021/08/10 05:32:09;;;;;;;5.25;1.70;;;15.70;99.90;;;;;;5037209;28;20036;-87
2021/08/10 05:34:35;;;;;;;7.45;1.73;;;15.70;99.90;;;;;;5054901;28;20056;-88
2021/08/10 05:37:01;;;;;;;3.53;1.42;;;15.50;99.90;;;;;;5044770;28;20028;-88
2021/08/10 05:39:27;;;;;;;5.82;1.42;;;15.50;99.90;;;;;;5041922;28;20207;-87
2021/08/10 05:41:52;;;;;;;3.55;1.60;;;15.60;99.90;;;;;;5037406;28;20045;-88
2021/08/10 05:44:18;;;;;;;2.88;1.42;;;15.50;99.90;;;;;;5037144;28;20032;-87
2021/08/10 05:46:44;;;;;;;2.15;1.50;;;15.50;99.90;;;;;;5036874;28;20455;-87
2021/08/10 05:49:09;;;;;;;2.28;1.38;;;15.70;99.90;;;;;;5036749;28;20028;-87
2021/08/10 05:51:36;;;;;;;5.47;1.85;;;15.90;99.90;;;;;;5036607;28;20056;-87
2021/08/10 05:54:02;;;;;;;4.38;1.50;;;15.80;99.90;;;;;;5054431;28;20029;-87
2021/08/10 05:56:28;;;;;;;3.33;1.50;;;15.80;99.90;;;;;;5036363;28;20032;-87
2021/08/10 05:58:53;;;;;;;3.95;1.58;;;16.00;99.90;;;;;;5036494;28;20017;-87
2021/08/10 06:01:19;;;;;;;2.05;1.15;;;16.30;99.90;;;;;;5036459;28;20032;-88
2021/08/10 06:03:45;;;;;;;5.95;1.40;;;16.20;99.90;;;;;;5036699;28;20039;-87
2021/08/10 06:06:10;;;;;;;5.60;1.65;;;16.30;99.90;;;;;;5036518;28;20025;-87
2021/08/10 06:08:36;;;;;;;4.20;1.52;;;16.20;99.90;;;;;;5036474;28;20028;-88
2021/08/10 06:11:02;;;;;;;4.90;1.85;;;16.10;99.90;;;;;;5036198;28;20021;-88
2021/08/10 06:13:28;;;;;;;9.00;1.70;;;16.10;99.90;;;;;;5036090;28;20028;-87
2021/08/10 06:15:54;;;;;;;4.57;1.33;;;16.20;99.90;;;;;;5036108;28;20412;-87
2021/08/10 06:18:20;;;;;;;4.45;1.55;;;16.30;99.90;;;;;;5037063;28;20549;-87
2021/08/10 06:20:46;;;;;;;4.53;1.48;;;16.40;99.90;;;;;;5036090;28;20060;-87
2021/08/10 06:23:12;;;;;;;3.83;1.40;;;16.70;99.90;;;;;;5036085;28;20045;-87
2021/08/10 06:25:37;;;;;;;2.28;1.40;;;17.00;99.90;;;;;;5035966;28;20028;-87
2021/08/10 06:28:03;;;;;;;5.88;1.50;;;17.10;99.90;;;;;;5036041;28;20044;-87
2021/08/10 06:30:29;;;;;;;7.88;1.55;;;17.20;99.90;;;;;;5035846;28;20392;-87
2021/08/10 06:32:55;;;;;;;2.42;1.60;;;17.20;99.90;;;;;;5035940;28;20025;-87
2021/08/10 06:35:20;;;;;;;3.90;1.67;;;17.40;99.90;;;;;;5035845;28;20441;-87
2021/08/10 06:37:46;;;;;;;3.08;1.65;;;17.50;99.90;;;;;;5035691;28;20025;-87
2021/08/10 06:40:12;;;;;;;3.30;1.40;;;17.60;99.90;;;;;;5035580;28;20045;-87
2021/08/10 06:42:38;;;;;;;4.18;1.50;;;17.70;99.90;;;;;;5035719;28;20033;-87
2021/08/10 06:45:04;;;;;;;4.07;1.40;;;17.80;99.90;;;;;;5035652;28;20017;-87
2021/08/10 06:47:30;;;;;;;8.45;1.80;;;17.90;99.90;;;;;;5053671;28;20029;-87
2021/08/10 06:49:55;;;;;;;2.97;1.58;;;18.00;99.90;;;;;;5035664;28;20025;-87
2021/08/10 06:52:21;;;;;;;7.50;1.58;;;18.20;99.90;;;;;;5035514;28;20118;-87
2021/08/10 06:54:47;;;;;;;3.83;1.30;;;18.30;99.90;;;;;;5035590;28;20029;-87
2021/08/10 06:57:13;;;;;;;4.43;1.42;;;18.40;99.90;;;;;;5053337;28;20025;-87
2021/08/10 06:59:39;;;;;;;2.70;1.42;;;18.60;99.90;;;;;;5035535;28;20028;-88
2021/08/10 07:02:06;;;;;;;5.47;1.58;;;18.70;99.90;;;;;;5035465;28;20075;-88
2021/08/10 07:04:32;;;;;;;3.08;1.42;;;18.70;99.90;;;;;;5035468;28;20024;-88
2021/08/10 07:07:02;;;;;;;6.10;1.63;;;18.70;99.90;;;;;;5035427;28;20541;-88
2021/08/10 07:09:28;;;;;;;2.60;1.27;;;18.60;99.90;;;;;;5035296;28;20033;-87
2021/08/10 07:11:54;;;;;;;4.85;1.42;;;18.60;99.90;;;;;;5053178;28;20496;-88
2021/08/10 07:14:19;;;;;;;4.57;1.55;;;18.70;99.90;;;;;;5035297;28;20075;-87
2021/08/10 07:16:46;;;;;;;3.80;1.50;;;18.70;99.90;;;;;;5053379;28;20025;-87
2021/08/10 07:19:13;;;;;;;7.65;1.45;;;18.80;99.90;;;;;;5035369;28;20463;-88
2021/08/10 07:21:39;;;;;;;3.83;1.30;;;19.00;99.90;;;;;;5035121;28;20031;-87
2021/08/10 07:24:05;;;;;;;3.38;1.50;;;19.00;99.90;;;;;;5035283;28;20108;-88
2021/08/10 07:26:32;;;;;;;7.55;1.58;;;19.10;99.90;;;;;;5035200;28;20112;-89
2021/08/10 07:28:58;;;;;;;7.45;1.50;;;18.90;99.90;;;;;;5035224;28;20025;-88
2021/08/10 07:31:23;;;;;;;6.30;1.50;;;18.80;99.90;;;;;;5035256;28;20047;-89
2021/08/10 07:33:50;;;;;;;4.22;1.40;;;18.80;99.90;;;;;;5053350;28;20025;-89
2021/08/10 07:36:16;;;;;;;3.22;1.25;;;18.90;99.90;;;;;;5034969;28;20029;-89
2021/08/10 07:38:42;;;;;;;5.65;1.60;;;19.10;99.90;;;;;;5035335;28;20029;-89
2021/08/10 07:41:08;;;;;;;6.68;1.65;;;19.20;99.90;;;;;;5038426;28;20049;-88
2021/08/10 07:43:34;;;;;;;3.63;1.48;;;19.30;99.90;;;;;;5039235;28;20032;-87
2021/08/10 07:46:00;;;;;;;6.00;2.03;;;19.40;99.90;;;;;;5049267;28;20051;-88
2021/08/10 07:48:25;;;;;;;7.88;2.10;;;19.50;99.90;;;;;;5063245;28;20104;-88
2021/08/10 07:50:51;;;;;;;5.28;1.50;;;19.60;99.90;;;;;;5039403;28;20108;-88
2021/08/10 07:53:20;;;;;;;3.85;1.55;;;19.80;99.90;;;;;;5039049;28;20032;-88
2021/08/10 07:55:47;;;;;;;3.20;1.35;;;19.90;99.90;;;;;;5038860;28;20188;-89
2021/08/10 07:58:13;;;;;;;5.43;1.70;;;20.00;99.90;;;;;;5039042;28;20025;-89
2021/08/10 08:00:38;;;;;;;3.40;1.55;;;20.20;99.90;;;;;;5038919;28;20465;-88
2021/08/10 08:03:04;;;;;;;4.10;1.60;;;20.10;99.90;;;;;;5039056;28;20055;-89
2021/08/10 08:05:31;;;;;;;4.93;1.77;;;20.00;99.90;;;;;;5039031;28;20021;-89
2021/08/10 08:07:57;;;;;;;2.88;1.30;;;19.90;99.90;;;;;;5055477;28;20048;-89
2021/08/10 08:10:22;;;;;;;6.38;1.98;;;20.00;99.90;;;;;;5038860;28;20075;-89
2021/08/10 08:12:48;;;;;;;6.28;1.30;;;20.40;99.90;;;;;;5038518;28;20025;-90
2021/08/10 08:15:14;;;;;;;5.68;1.33;;;20.50;99.90;;;;;;5056475;28;20029;-89
2021/08/10 08:17:40;;;;;;;4.68;1.20;;;20.40;99.90;;;;;;5038455;28;20035;-87
2021/08/10 08:20:06;;;;;;;6.28;1.70;;;20.40;99.90;;;;;;5038792;28;20038;-89
2021/08/10 08:22:32;;;;;;;6.70;1.52;;;20.40;99.90;;;;;;5038747;28;20028;-88
2021/08/10 08:24:58;;;;;;;2.90;1.27;;;20.20;99.90;;;;;;5038473;28;20025;-88
2021/08/10 08:27:23;;;;;;;4.80;1.48;;;20.20;99.90;;;;;;5038684;28;20063;-87
2021/08/10 08:29:49;;;;;;;4.03;1.50;;;20.00;99.90;;;;;;5038651;28;20054;-89
2021/08/10 08:32:15;;;;;;;2.92;1.40;;;20.20;99.90;;;;;;5038541;28;20059;-89
2021/08/10 08:34:40;;;;;;;7.43;1.80;;;20.30;99.90;;;;;;5038374;28;20033;-88
2021/08/10 08:37:06;;;;;;;4.25;1.38;;;20.20;99.90;;;;;;5055856;28;20473;-89
2021/08/10 08:39:32;;;;;;;4.28;1.90;;;20.20;99.90;;;;;;5038064;28;20029;-89
2021/08/10 08:42:02;;;;;;;5.15;1.90;;;20.40;99.90;;;;;;5038356;28;20516;-88
2021/08/10 08:44:34;;;;;;;5.68;1.42;;;20.80;99.90;;;;;;5038574;28;20170;-88
2021/08/10 08:47:09;;;;;;;5.10;1.35;;;21.00;99.90;;;;;;5038017;28;20499;-89
2021/08/10 08:49:37;;;;;;;3.08;1.20;;;21.00;99.90;;;;;;5038629;28;20021;-88
2021/08/10 08:52:08;;;;;;;4.55;1.50;;;20.90;99.90;;;;;;5040254;28;20174;-89
2021/08/10 08:54:34;;;;;;;9.32;1.50;;;20.90;99.90;;;;;;5037966;28;20028;-88
2021/08/10 08:57:00;;;;;;;4.45;1.58;;;20.90;99.90;;;;;;5037645;28;20025;-89
2021/08/10 08:59:26;;;;;;;6.15;1.60;;;21.00;99.90;;;;;;5037786;28;20025;-89
2021/08/10 09:01:52;;;;;;;6.32;1.70;;;21.20;99.90;;;;;;5037876;28;20115;-91
2021/08/10 09:04:19;;;;;;;5.53;1.92;;;21.20;99.90;;;;;;5038564;28;20511;-92
2021/08/10 09:06:45;;;;;;;4.55;1.80;;;21.30;99.90;;;;;;5038123;28;20032;-91
2021/08/10 09:09:21;;;;;;;3.85;1.65;;;21.40;99.90;;;;;;5043043;28;20021;-92
2021/08/10 09:11:50;;;;;;;3.15;1.90;;;21.60;99.90;;;;;;5039419;28;20021;-92
2021/08/10 09:14:16;;;;;;;3.35;1.67;;;21.70;99.90;;;;;;5039493;28;20112;-95
2021/08/10 09:17:07;;;;;;;6.78;1.77;;;21.40;99.90;;;;;;5025063;28;20029;-91
2021/08/10 09:19:45;;;;;;;4.72;2.00;;;21.30;99.90;;;;;;5038148;28;20048;-89
2021/08/10 09:22:18;;;;;;;4.95;1.70;;;21.50;99.90;;;;;;5038479;28;20017;-91
2021/08/10 09:24:47;;;;;;;4.70;1.80;;;21.70;99.90;;;;;;5039190;28;20025;-90
2021/08/10 09:27:45;;;;;;;5.70;1.88;;;21.90;99.90;;;;;;5038258;28;20110;-90
2021/08/10 09:30:25;;;;;;;3.22;1.85;;;22.00;99.90;;;;;;4994802;28;20037;-90
2021/08/10 09:32:51;;;;;;;6.45;1.75;;;22.20;99.90;;;;;;5037409;28;20075;-89
2021/08/10 09:35:19;;;;;;;7.60;1.65;;;22.00;99.90;;;;;;5037620;28;20021;-90
2021/08/10 09:38:07;;;;;;;4.05;1.70;;;22.00;99.90;;;;;;5037854;28;20028;-91
2021/08/10 09:40:35;;;;;;;6.25;1.88;;;21.90;99.90;;;;;;5054661;28;20052;-89
2021/08/10 09:43:32;;;;;;;3.65;1.40;;;22.30;99.90;;;;;;5039514;28;20028;-90
2021/08/10 09:46:17;;;;;;;4.47;2.25;;;22.30;99.90;;;;;;5040171;28;20032;-89
2021/08/10 09:48:53;;;;;;;6.47;1.27;;;22.70;99.90;;;;;;5041414;28;20364;-90
2021/08/10 09:51:22;;;;;;;6.40;2.05;;;22.80;99.90;;;;;;5037464;28;20032;-89
2021/08/10 09:54:03;;;;;;;5.07;1.42;;;22.80;99.90;;;;;;5037412;28;20504;-90
2021/08/10 09:56:51;;;;;;;4.03;1.48;;;22.80;99.90;;;;;;5054971;28;20480;-90
2021/08/10 09:59:39;;;;;;;2.20;1.13;;;23.00;99.90;;;;;;5037217;28;20028;-90
2021/08/10 10:02:21;;;;;;;6.28;1.40;;;23.20;99.90;;;;;;5036545;28;20021;-88
2021/08/10 10:04:57;;;;;;;3.45;1.40;;;23.20;99.90;;;;;;5036862;28;20033;-89
2021/08/10 10:07:23;;;;;;;5.43;1.38;;;23.30;99.90;;;;;;5037236;28;20074;-89
2021/08/10 10:09:50;;;;;;;3.42;1.30;;;23.30;99.90;;;;;;5036500;28;20036;-90
2021/08/10 10:12:19;;;;;;;2.75;1.25;;;23.30;99.90;;;;;;5036598;28;20025;-90
2021/08/10 10:14:46;;;;;;;5.15;1.90;;;23.40;99.90;;;;;;5036704;28;20033;-90
2021/08/10 10:17:13;;;;;;;7.03;1.80;;;23.50;99.90;;;;;;5036578;28;20036;-89
2021/08/10 10:19:45;;;;;;;4.40;1.27;;;23.60;99.90;;;;;;5036393;28;20071;-90
2021/08/10 10:22:17;;;;;;;4.85;1.88;;;23.60;99.90;;;;;;5036394;28;20017;-88
2021/08/10 10:25:02;;;;;;;2.97;1.50;;;23.60;99.90;;;;;;5036193;28;20025;-90
2021/08/10 10:27:27;;;;;;;5.18;1.70;;;23.70;99.90;;;;;;5036248;28;20111;-89
2021/08/10 10:29:54;;;;;;;3.88;1.27;;;23.80;99.90;;;;;;5036168;28;20067;-89
2021/08/10 10:32:22;;;;;;;4.85;1.27;;;24.10;99.90;;;;;;5036103;28;20493;-89
2021/08/10 10:34:48;;;;;;;2.88;1.40;;;24.30;99.90;;;;;;5036460;28;20024;-90
2021/08/10 10:37:21;;;;;;;2.72;1.50;;;24.60;99.90;;;;;;5036067;28;20053;-90
2021/08/10 10:39:55;;;;;;;3.28;1.20;;;24.60;99.90;;;;;;5034640;28;20127;-89
2021/08/10 10:42:22;;;;;;;8.20;1.63;;;24.60;99.90;;;;;;5015972;28;20116;-90
2021/08/10 10:44:52;;;;;;;6.15;1.70;;;24.70;99.90;;;;;;5016158;28;20065;-90
2021/08/10 10:47:24;;;;;;;4.93;1.65;;;24.70;99.90;;;;;;5016974;28;20033;-90
2021/08/10 10:49:56;;;;;;;3.38;1.30;;;24.70;99.90;;;;;;5033890;28;20060;-90
2021/08/10 10:52:26;;;;;;;4.32;1.35;;;24.80;99.90;;;;;;5015866;28;20025;-91
2021/08/10 10:54:53;;;;;;;3.80;1.42;;;24.80;99.90;;;;;;5015970;28;20026;-89
2021/08/10 10:57:34;;;;;;;2.95;1.30;;;24.80;99.90;;;;;;5016190;28;20038;-91
2021/08/10 11:00:08;;;;;;;2.40;1.30;;;24.90;99.90;;;;;;5033885;28;20045;-91
2021/08/10 11:02:36;;;;;;;4.03;1.42;;;25.10;99.90;;;;;;5015842;28;20072;-90
2021/08/10 11:05:12;;;;;;;3.63;1.52;;;25.30;99.90;;;;;;5016062;28;20022;-89
2021/08/10 11:07:45;;;;;;;4.45;1.60;;;25.40;99.90;;;;;;5015901;28;20029;-90
2021/08/10 11:10:23;;;;;;;2.03;1.13;;;25.30;99.90;;;;;;5018321;28;20056;-89
2021/08/10 11:12:52;;;;;;;2.78;1.35;;;25.30;99.90;;;;;;5017888;28;20369;-90
2021/08/10 11:15:41;;;;;;;2.85;1.20;;;25.40;99.90;;;;;;5017104;28;20061;-89
2021/08/10 11:18:09;;;;;;;5.45;1.50;;;25.60;99.90;;;;;;5016983;28;20026;-90
2021/08/10 11:20:50;;;;;;;2.80;1.27;;;25.60;99.90;;;;;;5017659;28;20127;-90
2021/08/10 11:23:23;;;;;;;2.17;1.30;;;25.70;99.90;;;;;;5017091;28;20473;-88
2021/08/10 11:26:14;;;;;;;3.83;1.60;;;25.80;99.90;;;;;;5017274;28;20392;-89
2021/08/10 11:28:50;;;;;;;4.35;1.50;;;25.80;99.90;;;;;;5017866;28;20022;-91
2021/08/10 11:31:42;;;;;;;2.80;1.40;;;25.50;99.90;;;;;;5016936;28;20113;-90
2021/08/10 11:34:43;;;;;;;3.40;1.50;;;25.30;99.90;;;;;;5017056;28;20029;-90
2021/08/10 11:37:23;;;;;;;2.60;1.40;;;25.30;99.90;;;;;;4977219;28;20034;-89
2021/08/10 11:40:11;;;;;;;4.55;1.58;;;25.40;99.90;;;;;;5029333;28;20092;-89
2021/08/10 11:42:38;;;;;;;5.82;1.70;;;25.50;99.90;;;;;;5019481;28;20017;-89
2021/08/10 11:45:05;;;;;;;5.70;1.40;;;25.90;99.90;;;;;;5038400;28;20017;-89
2021/08/10 11:47:31;;;;;;;2.95;1.40;;;26.30;99.90;;;;;;5036136;28;20396;-89
2021/08/10 11:49:57;;;;;;;3.45;1.33;;;26.60;99.90;;;;;;5028678;28;20032;-89
2021/08/10 11:52:23;;;;;;;3.20;1.30;;;26.60;99.90;;;;;;5026223;28;20029;-88
2021/08/10 11:54:58;;;;;;;3.03;1.40;;;27.20;99.90;;;;;;5018834;28;20128;-89
2021/08/10 11:57:24;;;;;;;3.95;1.27;;;27.50;99.90;;;;;;5018091;28;20465;-90
2021/08/10 12:00:14;;;;;;;3.30;1.60;;;28.20;99.90;;;;;;5017154;28;20354;-89
2021/08/10 12:02:44;;;;;;;5.25;1.30;;;28.60;99.80;;;;;;5016838;28;20017;-90
2021/08/10 12:05:11;;;;;;;4.65;1.52;;;28.80;99.90;;;;;;5016654;28;20025;-89
2021/08/10 12:07:49;;;;;;;4.65;1.63;;;29.20;99.90;;;;;;5016785;28;20152;-89
2021/08/10 12:10:26;;;;;;;4.70;1.40;;;28.80;99.90;;;;;;5017346;28;20026;-90
2021/08/10 12:12:52;;;;;;;4.15;1.38;;;28.10;99.90;;;;;;5035015;28;20140;-89
2021/08/10 12:15:44;;;;;;;2.78;1.08;;;27.60;99.90;;;;;;5017214;28;20030;-89
2021/08/10 12:18:12;;;;;;;3.08;1.42;;;27.10;99.90;;;;;;5016939;28;20026;-89
2021/08/10 12:20:38;;;;;;;7.18;1.83;;;26.80;99.90;;;;;;5016769;28;20155;-89
2021/08/10 12:23:13;;;;;;;3.67;1.60;;;26.50;99.90;;;;;;5017381;28;20022;-89
2021/08/10 12:25:39;;;;;;;3.90;1.60;;;27.00;99.90;;;;;;5017428;28;20025;-88
2021/08/10 12:28:10;;;;;;;3.10;1.40;;;27.90;99.90;;;;;;5020287;28;20037;-89
2021/08/10 12:30:37;;;;;;;3.38;1.35;;;28.30;99.90;;;;;;5020541;28;20056;-90
2021/08/10 12:33:18;;;;;;;2.92;1.40;;;28.60;99.90;;;;;;5019884;28;20113;-90
2021/08/10 12:36:03;;;;;;;4.88;1.65;;;28.00;99.90;;;;;;5020325;28;20022;-89
2021/08/10 12:38:30;;;;;;;4.50;1.38;;;27.80;99.90;;;;;;5020618;28;20022;-90
2021/08/10 12:40:57;;;;;;;2.55;1.33;;;28.00;99.90;;;;;;5037235;28;20048;-89
2021/08/10 12:43:26;;;;;;;4.05;1.63;;;28.10;99.90;;;;;;5020823;28;20025;-90
2021/08/10 12:45:52;;;;;;;2.95;1.50;;;28.50;98.70;;;;;;5019976;28;20017;-90
2021/08/10 12:48:25;;;;;;;3.63;1.40;;;29.00;99.80;;;;;;5037412;28;20021;-89
2021/08/10 12:51:03;;;;;;;3.70;1.60;;;28.90;99.90;;;;;;5020056;28;20045;-88
2021/08/10 12:53:34;;;;;;;3.45;1.35;;;28.90;99.90;;;;;;5019972;28;20507;-87
2021/08/10 12:56:05;;;;;;;4.78;1.83;;;29.30;99.00;;;;;;5019790;28;20116;-90
2021/08/10 12:58:49;;;;;;;4.18;1.60;;;30.10;98.90;;;;;;5019650;28;20029;-89